createdAt,value
2022-12-15T00:01:19.891Z,39.65
2022-12-15T00:04:41.725Z,41.08
2022-12-15T00:08:03.373Z,36.03
2022-12-15T00:11:25.202Z,35.35
2022-12-15T00:14:46.638Z,35.47
2022-12-15T00:18:08.512Z,40.42
2022-12-15T00:21:30.075Z,36.43
2022-12-15T00:24:51.774Z,36.88
2022-12-15T00:28:15.725Z,41.35
2022-12-15T00:31:37.757Z,42.73
2022-12-15T00:34:59.435Z,44.10
2022-12-15T00:38:28.917Z,36.90
2022-12-15T00:41:31.965Z,44.92
2022-12-15T00:44:35.485Z,41.92
2022-12-15T00:47:38.710Z,40.47
2022-12-15T00:50:53.741Z,41.15
2022-12-15T00:54:18.178Z,39.90
2022-12-15T00:57:40.586Z,38.05
2022-12-15T01:01:02.163Z,40.00
2022-12-15T01:04:24.423Z,40.30
2022-12-15T01:07:49.803Z,38.38
2022-12-15T01:11:13.907Z,37.47
2022-12-15T01:14:35.493Z,43.83
2022-12-15T01:17:57.794Z,35.70
2022-12-15T01:21:05.507Z,40.60
2022-12-15T01:24:08.956Z,42.40
2022-12-15T01:27:13.198Z,43.70
2022-12-15T01:30:20.292Z,41.58
2022-12-15T01:33:24.486Z,43.53
2022-12-15T01:36:27.849Z,39.10
2022-12-15T01:39:51.604Z,41.00
2022-12-15T01:42:55.322Z,39.78
2022-12-15T01:46:14.400Z,43.50
2022-12-15T01:49:23.507Z,42.50
2022-12-15T01:52:26.978Z,40.55
2022-12-15T01:55:32.494Z,45.03
2022-12-15T01:58:38.865Z,39.27
2022-12-15T02:01:42.617Z,42.15
2022-12-15T02:04:51.700Z,42.38
2022-12-15T02:07:54.961Z,42.77
2022-12-15T02:11:11.235Z,42.35
2022-12-15T02:14:25.964Z,44.45
2022-12-15T02:17:41.014Z,45.00
2022-12-15T02:21:07.436Z,41.50
2022-12-15T02:24:34.685Z,40.38
2022-12-15T02:28:09.637Z,44.75
2022-12-15T02:31:49.936Z,45.77
2022-12-15T02:35:03.183Z,46.97
2022-12-15T02:38:08.898Z,45.35
2022-12-15T02:41:38.259Z,40.73
2022-12-15T02:44:56.396Z,50.80
2022-12-15T02:48:11.998Z,49.05
2022-12-15T02:51:44.884Z,43.55
2022-12-15T02:55:02.729Z,44.58
2022-12-15T02:58:44.439Z,45.55
2022-12-15T03:01:58.131Z,50.22
2022-12-15T03:05:02.073Z,47.37
2022-12-15T03:08:05.325Z,51.47
2022-12-15T03:11:08.789Z,51.20
2022-12-15T03:14:11.858Z,49.37
2022-12-15T03:17:15.346Z,50.55
2022-12-15T03:20:18.517Z,49.95
2022-12-15T03:23:23.198Z,43.67
2022-12-15T03:26:27.939Z,48.40
2022-12-15T03:29:31.229Z,46.50
2022-12-15T03:32:34.409Z,47.03
2022-12-15T03:35:37.810Z,47.07
2022-12-15T03:38:42.460Z,47.20
2022-12-15T03:41:45.860Z,55.80
2022-12-15T03:44:49.721Z,49.73
2022-12-15T03:47:54.231Z,48.92
2022-12-15T03:50:57.318Z,53.50
2022-12-15T03:54:01.247Z,52.30
2022-12-15T03:57:04.352Z,49.58
2022-12-15T04:00:08.225Z,41.20
2022-12-15T04:03:15.815Z,59.50
2022-12-15T04:06:19.443Z,47.83
2022-12-15T04:09:22.761Z,49.58
2022-12-15T04:12:26.053Z,51.85
2022-12-15T04:15:29.454Z,49.30
2022-12-15T04:18:32.892Z,52.20
2022-12-15T04:21:36.127Z,51.28
2022-12-15T04:24:58.223Z,46.65
2022-12-15T04:28:19.933Z,51.08
2022-12-15T04:32:01.549Z,53.33
2022-12-15T04:35:23.912Z,54.42
2022-12-15T04:38:50.395Z,48.50
2022-12-15T04:42:14.317Z,59.92
2022-12-15T04:45:39.384Z,65.10
2022-12-15T04:49:01.255Z,63.53
2022-12-15T04:52:24.118Z,67.53
2022-12-15T04:55:46.823Z,63.00
2022-12-15T04:59:09.009Z,50.50
2022-12-15T05:02:33.568Z,56.92
2022-12-15T05:05:55.866Z,57.62
2022-12-15T05:09:18.015Z,53.97
2022-12-15T05:12:40.049Z,55.97
2022-12-15T05:16:01.693Z,59.25
2022-12-15T05:19:23.980Z,62.25
2022-12-15T05:22:46.066Z,65.07
2022-12-15T05:26:08.239Z,56.50
2022-12-15T05:29:30.135Z,62.70
2022-12-15T05:32:33.632Z,67.00
2022-12-15T05:35:36.697Z,67.72
2022-12-15T05:38:40.278Z,71.85
2022-12-15T05:41:43.492Z,60.40
2022-12-15T05:44:47.278Z,61.00
2022-12-15T05:47:53.700Z,52.47
2022-12-15T05:50:57.030Z,54.38
2022-12-15T05:54:00.323Z,53.20
2022-12-15T05:57:03.843Z,58.55
2022-12-15T06:00:07.726Z,59.22
2022-12-15T06:03:14.650Z,54.70
2022-12-15T06:06:18.131Z,62.80
2022-12-15T06:09:23.430Z,54.63
2022-12-15T06:12:26.800Z,56.42
2022-12-15T06:15:29.888Z,54.80
2022-12-15T06:18:38.655Z,53.33
2022-12-15T06:21:41.856Z,70.05
2022-12-15T06:24:45.315Z,64.23
2022-12-15T06:27:51.526Z,58.13
2022-12-15T06:31:02.442Z,58.58
2022-12-15T06:34:08.425Z,56.35
2022-12-15T06:37:12.847Z,61.63
2022-12-15T06:40:16.077Z,61.03
2022-12-15T06:43:19.441Z,62.67
2022-12-15T06:46:23.914Z,57.27
2022-12-15T06:49:27.549Z,59.88
2022-12-15T06:52:31.109Z,65.57
2022-12-15T06:55:34.707Z,54.67
2022-12-15T06:58:37.792Z,58.67
2022-12-15T07:01:42.196Z,62.47
2022-12-15T07:04:45.637Z,56.22
2022-12-15T07:07:49.106Z,56.58
2022-12-15T07:10:52.464Z,60.58
2022-12-15T07:13:55.946Z,57.35
2022-12-15T07:16:59.070Z,58.27
2022-12-15T07:20:03.120Z,65.50
2022-12-15T07:23:09.717Z,62.33
2022-12-15T07:26:13.195Z,56.27
2022-12-15T07:29:22.680Z,54.17
2022-12-15T07:32:26.780Z,70.37
2022-12-15T07:35:30.155Z,53.17
2022-12-15T07:38:34.078Z,64.62
2022-12-15T07:41:38.748Z,53.58
2022-12-15T07:44:42.501Z,56.60
2022-12-15T07:47:50.338Z,58.40
2022-12-15T07:51:02.731Z,58.10
2022-12-15T07:54:14.244Z,59.88
2022-12-15T07:57:17.930Z,57.43
2022-12-15T08:00:21.230Z,56.78
2022-12-15T08:03:24.678Z,63.42
2022-12-15T08:06:27.814Z,65.68
2022-12-15T08:09:34.217Z,59.85
2022-12-15T08:12:37.489Z,62.75
2022-12-15T08:15:41.743Z,54.67
2022-12-15T08:18:44.764Z,58.30
2022-12-15T08:21:48.667Z,60.95
2022-12-15T08:24:53.061Z,72.40
2022-12-15T08:27:58.742Z,54.20
2022-12-15T08:31:09.910Z,62.92
2022-12-15T08:34:13.358Z,62.62
2022-12-15T08:37:16.540Z,59.40
2022-12-15T08:40:21.227Z,61.67
2022-12-15T08:43:24.575Z,60.08
2022-12-15T08:46:33.892Z,60.45
2022-12-15T08:49:38.189Z,67.63
2022-12-15T08:53:00.756Z,60.75
2022-12-15T08:56:09.400Z,64.35
2022-12-15T08:59:13.341Z,65.67
2022-12-15T09:02:16.625Z,66.50
2022-12-15T09:05:20.366Z,60.70
2022-12-15T09:08:24.535Z,62.08
2022-12-15T09:11:29.937Z,66.25
2022-12-15T09:14:33.492Z,66.97
2022-12-15T09:17:36.785Z,69.22
2022-12-15T09:20:40.707Z,64.20
2022-12-15T09:23:49.152Z,69.22
2022-12-15T09:26:52.300Z,76.57
2022-12-15T09:29:55.731Z,63.53
2022-12-15T09:32:58.922Z,63.40
2022-12-15T09:36:04.081Z,62.40
2022-12-15T09:39:09.345Z,72.53
2022-12-15T09:42:32.918Z,68.00
2022-12-15T09:45:46.713Z,74.93
2022-12-15T09:48:53.259Z,65.30
2022-12-15T09:52:10.990Z,67.53
2022-12-15T09:55:35.382Z,69.28
2022-12-15T09:58:51.706Z,67.93
2022-12-15T10:02:10.576Z,79.67
2022-12-15T10:09:21.547Z,64.12
2022-12-15T10:12:33.110Z,71.95
2022-12-15T10:15:45.633Z,78.12
2022-12-15T10:19:02.236Z,76.37
2022-12-15T10:22:05.563Z,79.57
2022-12-15T10:25:25.330Z,58.07
2022-12-15T10:29:11.678Z,59.15
2022-12-15T10:32:51.918Z,70.62
2022-12-15T10:35:56.209Z,68.73
2022-12-15T10:38:59.576Z,67.85
2022-12-15T10:42:18.278Z,72.95
2022-12-15T10:45:39.235Z,64.07
2022-12-15T10:48:48.848Z,65.28
2022-12-15T10:52:03.189Z,74.47
2022-12-15T10:55:49.806Z,71.82
2022-12-15T10:58:56.917Z,64.77
2022-12-15T11:02:25.212Z,81.47
2022-12-15T11:05:29.275Z,71.30
2022-12-15T11:08:33.629Z,72.57
2022-12-15T11:12:06.344Z,83.82
2022-12-15T11:15:23.951Z,67.12
2022-12-15T11:18:33.350Z,63.85
2022-12-15T11:21:44.700Z,63.28
2022-12-15T11:24:57.280Z,77.20
2022-12-15T11:28:06.982Z,75.68
2022-12-15T11:31:20.927Z,65.83
2022-12-15T11:34:28.273Z,75.80
2022-12-15T11:37:44.561Z,67.65
2022-12-15T11:40:47.826Z,79.23
2022-12-15T11:44:04.363Z,80.75
2022-12-15T11:47:18.404Z,81.97
2022-12-15T11:50:24.775Z,84.45
2022-12-15T11:53:50.179Z,72.53
2022-12-15T11:57:03.320Z,77.45
2022-12-15T12:00:19.795Z,73.97
2022-12-15T12:03:37.102Z,82.47
2022-12-15T12:06:53.064Z,75.53
2022-12-15T12:10:38.943Z,75.50
2022-12-15T12:14:11.848Z,65.03
2022-12-15T12:17:34.307Z,61.33
2022-12-15T12:20:52.114Z,63.05
2022-12-15T12:24:06.213Z,61.80
2022-12-15T12:27:29.434Z,60.35
2022-12-15T12:30:42.792Z,66.53
2022-12-15T12:33:52.794Z,65.12
2022-12-15T12:37:05.955Z,64.20
2022-12-15T12:40:38.233Z,65.60
2022-12-15T12:43:50.141Z,62.47
2022-12-15T12:46:57.545Z,65.90
2022-12-15T12:50:23.625Z,66.20
2022-12-15T12:53:34.221Z,64.25
2022-12-15T12:56:40.892Z,55.50
2022-12-15T12:59:51.918Z,61.20
2022-12-15T13:02:57.476Z,60.50
2022-12-15T13:06:26.551Z,63.63
2022-12-15T13:10:13.026Z,67.30
2022-12-15T13:13:19.281Z,64.30
2022-12-15T13:16:26.948Z,66.97
2022-12-15T13:19:58.447Z,67.27
2022-12-15T13:23:23.521Z,69.05
2022-12-15T13:26:32.203Z,62.30
2022-12-15T13:30:17.464Z,55.28
2022-12-15T13:33:20.610Z,60.47
2022-12-15T13:36:42.364Z,58.78
2022-12-15T13:39:53.863Z,67.62
2022-12-15T13:43:05.034Z,66.43
2022-12-15T13:46:18.092Z,73.30
2022-12-15T13:49:29.232Z,69.37
2022-12-15T13:53:17.887Z,75.63
2022-12-15T13:56:24.794Z,73.37
2022-12-15T13:59:42.416Z,65.28
2022-12-15T14:02:46.541Z,72.45
2022-12-15T14:05:59.354Z,70.95
2022-12-15T14:09:03.613Z,72.97
2022-12-15T14:12:13.645Z,75.87
2022-12-15T14:15:19.580Z,69.50
2022-12-15T14:18:39.341Z,76.03
2022-12-15T14:21:54.298Z,81.78
2022-12-15T14:25:13.102Z,93.93
2022-12-15T14:28:46.900Z,80.53
2022-12-15T14:31:56.905Z,84.37
2022-12-15T14:35:00.216Z,90.55
2022-12-15T14:38:14.884Z,97.78
2022-12-15T14:41:29.186Z,93.12
2022-12-15T14:44:39.179Z,88.35
2022-12-15T14:48:13.576Z,92.23
2022-12-15T14:51:17.455Z,92.93
2022-12-15T14:54:39.458Z,96.82
2022-12-15T14:57:48.056Z,95.63
2022-12-15T15:00:53.747Z,99.93
2022-12-15T15:03:03.569Z,73.90
2022-12-15T15:04:01.099Z,99.43
2022-12-15T15:07:15.135Z,107.00
2022-12-15T15:10:29.139Z,125.65
2022-12-15T15:13:40.859Z,119.93
2022-12-15T15:16:44.717Z,104.78
2022-12-15T15:19:55.143Z,103.67
2022-12-15T15:23:19.761Z,112.40
2022-12-15T15:26:25.834Z,113.57
2022-12-15T15:29:41.297Z,108.77
2022-12-15T15:32:58.745Z,105.25
2022-12-15T15:36:04.298Z,99.75
2022-12-15T15:39:15.523Z,111.20
2022-12-15T15:42:19.288Z,106.65
2022-12-15T15:45:22.725Z,102.03
2022-12-15T15:48:31.509Z,98.45
2022-12-15T15:51:36.228Z,109.07
2022-12-15T15:54:39.917Z,96.63
2022-12-15T15:57:43.113Z,91.43
2022-12-15T16:00:46.810Z,91.73
2022-12-15T16:03:50.303Z,104.60
2022-12-15T16:06:54.416Z,95.65
2022-12-15T16:09:59.247Z,101.70
2022-12-15T16:13:02.498Z,99.10
2022-12-15T16:16:10.600Z,89.00
2022-12-15T16:19:13.850Z,95.75
2022-12-15T16:22:22.572Z,112.43
2022-12-15T16:25:50.775Z,129.98
2022-12-15T16:28:54.741Z,106.93
2022-12-15T16:31:58.306Z,89.23
2022-12-15T16:35:01.756Z,101.70
2022-12-15T16:38:28.835Z,94.62
2022-12-15T16:41:33.300Z,102.68
2022-12-15T16:44:36.721Z,88.95
2022-12-15T16:47:40.859Z,89.43
2022-12-15T16:50:50.257Z,90.87
2022-12-15T16:53:56.136Z,76.70
2022-12-15T16:57:00.416Z,82.85
2022-12-15T17:00:31.506Z,75.95
2022-12-15T17:03:34.789Z,85.37
2022-12-15T17:06:38.992Z,81.12
2022-12-15T17:09:42.277Z,76.15
2022-12-15T17:12:46.468Z,73.18
2022-12-15T17:15:49.642Z,81.20
2022-12-15T17:18:53.142Z,74.07
2022-12-15T17:21:56.420Z,79.22
2022-12-15T17:25:00.393Z,115.47
2022-12-15T17:28:06.696Z,84.40
2022-12-15T17:31:22.465Z,82.57
2022-12-15T17:34:34.906Z,91.27
2022-12-15T17:37:40.469Z,84.28
2022-12-15T17:40:49.209Z,90.95
2022-12-15T17:44:24.187Z,85.20
2022-12-15T17:47:18.988Z,83.90
2022-12-15T17:50:25.267Z,96.90
2022-12-15T17:53:33.175Z,79.68
2022-12-15T17:56:37.553Z,91.10
2022-12-15T17:59:41.450Z,99.43
2022-12-15T18:02:45.303Z,85.35
2022-12-15T18:05:52.185Z,93.60
2022-12-15T18:08:58.284Z,82.20
2022-12-15T18:12:16.237Z,94.70
2022-12-15T18:15:26.997Z,97.70
2022-12-15T18:18:31.127Z,87.40
2022-12-15T18:21:35.515Z,91.60
2022-12-15T18:24:40.589Z,98.37
2022-12-15T18:27:44.104Z,84.77
2022-12-15T18:30:49.259Z,86.37
2022-12-15T18:34:01.009Z,85.47
2022-12-15T18:37:25.129Z,78.13
2022-12-15T18:40:33.927Z,82.85
2022-12-15T18:43:39.432Z,71.45
2022-12-15T18:46:47.928Z,76.80
2022-12-15T18:49:52.323Z,104.72
2022-12-15T18:53:00.571Z,118.60
2022-12-15T18:56:07.476Z,111.80
2022-12-15T18:59:17.154Z,100.77
2022-12-15T19:02:21.607Z,102.97
2022-12-15T19:05:29.255Z,100.55
2022-12-15T19:08:36.368Z,96.10
2022-12-15T19:11:41.279Z,79.70
2022-12-15T19:14:50.840Z,84.72
2022-12-15T19:18:13.495Z,83.12
2022-12-15T19:21:39.312Z,75.25
2022-12-15T19:24:54.598Z,72.53
2022-12-15T19:28:02.779Z,79.85
2022-12-15T19:31:09.435Z,75.80
2022-12-15T19:34:14.401Z,77.97
2022-12-15T19:37:32.642Z,77.03
2022-12-15T19:40:38.167Z,75.67
2022-12-15T19:43:46.458Z,85.75
2022-12-15T19:46:51.551Z,73.00
2022-12-15T19:49:56.231Z,83.07
2022-12-15T19:53:02.495Z,81.07
2022-12-15T19:56:17.455Z,81.30
2022-12-15T19:59:27.348Z,77.05
2022-12-15T20:02:32.929Z,64.40
2022-12-15T20:05:40.090Z,79.82
2022-12-15T20:08:48.869Z,71.20
2022-12-15T20:11:56.087Z,64.67
2022-12-15T20:15:01.951Z,70.78
2022-12-15T20:18:06.363Z,74.53
2022-12-15T20:21:10.735Z,70.20
2022-12-15T20:24:19.501Z,76.68
2022-12-15T20:27:23.355Z,74.45
2022-12-15T20:30:32.916Z,70.00
2022-12-15T20:33:37.251Z,74.50
2022-12-15T20:36:41.356Z,62.47
2022-12-15T20:39:52.592Z,66.87
2022-12-15T20:43:01.043Z,60.57
2022-12-15T20:46:16.309Z,56.95
2022-12-15T20:49:22.334Z,59.15
2022-12-15T20:52:27.525Z,50.65
2022-12-15T20:55:34.591Z,50.28
2022-12-15T20:58:42.873Z,43.95
2022-12-15T21:01:47.432Z,43.28
2022-12-15T21:04:52.469Z,39.30
2022-12-15T21:07:58.789Z,40.45
2022-12-15T21:11:15.298Z,35.45
2022-12-15T21:14:21.470Z,33.53
2022-12-15T21:17:26.167Z,37.97
2022-12-15T21:20:29.805Z,36.90
2022-12-15T21:23:38.494Z,34.50
2022-12-15T21:26:45.201Z,35.10
2022-12-15T21:29:53.248Z,35.55
2022-12-15T21:32:56.720Z,30.37
2022-12-15T21:36:00.114Z,28.13
2022-12-15T21:39:06.831Z,31.12
2022-12-15T21:42:16.168Z,27.95
2022-12-15T21:45:22.248Z,30.40
2022-12-15T21:48:45.840Z,32.58
2022-12-15T21:51:55.311Z,35.17
2022-12-15T21:54:58.604Z,34.22
2022-12-15T21:58:03.085Z,33.55
2022-12-15T22:01:09.414Z,34.38
2022-12-15T22:04:21.746Z,34.90
2022-12-15T22:07:25.187Z,43.90
2022-12-15T22:10:28.754Z,42.62
2022-12-15T22:13:32.918Z,38.40
2022-12-15T22:16:36.665Z,37.73
2022-12-15T22:19:39.858Z,38.17
2022-12-15T22:22:44.809Z,37.28
2022-12-15T22:25:54.631Z,33.13
2022-12-15T22:29:03.432Z,36.83
2022-12-15T22:32:14.748Z,37.33
2022-12-15T22:35:23.317Z,30.33
2022-12-15T22:38:26.479Z,35.27
2022-12-15T22:41:29.981Z,37.78
2022-12-15T22:44:37.464Z,36.40
2022-12-15T22:47:41.384Z,40.73
2022-12-15T22:50:45.534Z,36.28
2022-12-15T22:53:49.036Z,33.28
2022-12-15T22:56:58.588Z,39.88
2022-12-15T23:00:07.979Z,40.67
2022-12-15T23:03:12.098Z,39.70
2022-12-15T23:06:17.200Z,35.75
2022-12-15T23:09:22.159Z,32.90
2022-12-15T23:12:25.560Z,37.50
2022-12-15T23:15:48.209Z,37.47
2022-12-15T23:18:55.730Z,35.57
2022-12-15T23:21:58.918Z,32.90
2022-12-15T23:25:07.511Z,36.05
2022-12-15T23:28:12.905Z,42.40
2022-12-15T23:31:19.365Z,40.75
2022-12-15T23:34:23.930Z,43.05
2022-12-15T23:37:27.367Z,41.95
2022-12-15T23:40:30.729Z,46.43
2022-12-15T23:43:35.041Z,43.05
2022-12-15T23:46:38.431Z,44.70
2022-12-15T23:49:42.202Z,43.33
2022-12-15T23:52:48.157Z,47.22
2022-12-15T23:55:54.534Z,44.65
2022-12-15T23:58:59.849Z,41.53
